createdAt,value
2023-04-20T00:01:28.366Z,2.03
2023-04-20T00:03:57.051Z,2.37
2023-04-20T00:06:29.478Z,2.40
2023-04-20T00:08:57.499Z,1.90
2023-04-20T00:11:26.533Z,1.83
2023-04-20T00:13:54.470Z,2.37
2023-04-20T00:16:22.496Z,2.00
2023-04-20T00:18:51.522Z,2.00
2023-04-20T00:21:21.791Z,2.33
2023-04-20T00:23:51.224Z,2.17
2023-04-20T00:26:19.819Z,1.70
2023-04-20T00:28:47.701Z,1.80
2023-04-20T00:31:15.696Z,2.10
2023-04-20T00:33:43.593Z,2.10
2023-04-20T00:36:11.687Z,2.33
2023-04-20T00:38:39.643Z,1.90
2023-04-20T00:41:08.887Z,1.53
2023-04-20T00:43:36.797Z,2.43
2023-04-20T00:46:04.718Z,2.10
2023-04-20T00:48:32.684Z,2.50
2023-04-20T00:51:00.825Z,1.97
2023-04-20T00:53:28.746Z,1.77
2023-04-20T00:55:56.788Z,2.00
2023-04-20T00:58:26.204Z,1.80
2023-04-20T01:00:54.083Z,2.30
2023-04-20T01:03:22.692Z,2.27
2023-04-20T01:05:51.525Z,2.33
2023-04-20T01:08:19.409Z,2.00
2023-04-20T01:10:47.517Z,2.30
2023-04-20T01:13:15.431Z,2.03
2023-04-20T01:15:44.708Z,2.20
2023-04-20T01:18:13.411Z,2.03
2023-04-20T01:20:41.271Z,1.80
2023-04-20T01:23:10.613Z,1.90
2023-04-20T01:25:38.479Z,1.80
2023-04-20T01:28:06.553Z,1.83
2023-04-20T01:30:35.749Z,2.00
2023-04-20T01:33:04.165Z,2.00
2023-04-20T01:35:32.188Z,2.20
2023-04-20T01:38:00.684Z,2.30
2023-04-20T01:40:30.005Z,1.87
2023-04-20T01:42:57.904Z,2.20
2023-04-20T01:45:25.797Z,2.30
2023-04-20T01:47:53.740Z,2.00
2023-04-20T01:50:21.626Z,2.43
2023-04-20T01:52:49.556Z,1.60
2023-04-20T01:55:19.573Z,1.90
2023-04-20T01:57:49.411Z,2.10
2023-04-20T02:00:18.201Z,2.20
2023-04-20T02:02:46.222Z,1.80
2023-04-20T02:05:14.399Z,1.77
2023-04-20T02:07:42.282Z,2.20
2023-04-20T02:10:11.022Z,2.23
2023-04-20T02:12:38.894Z,1.93
2023-04-20T02:15:10.205Z,2.03
2023-04-20T02:17:38.284Z,2.03
2023-04-20T02:20:08.065Z,1.93
2023-04-20T02:22:36.205Z,1.80
2023-04-20T02:25:05.132Z,1.70
2023-04-20T02:27:33.164Z,2.27
2023-04-20T02:30:01.357Z,2.00
2023-04-20T02:32:30.613Z,2.10
2023-04-20T02:34:58.610Z,1.90
2023-04-20T02:37:27.250Z,2.00
2023-04-20T02:39:55.184Z,1.93
2023-04-20T02:42:23.143Z,2.13
2023-04-20T02:44:52.645Z,1.87
2023-04-20T02:47:20.707Z,1.73
2023-04-20T02:49:50.002Z,2.30
2023-04-20T02:52:17.922Z,2.00
2023-04-20T02:54:45.946Z,1.93
2023-04-20T02:57:13.956Z,1.80
2023-04-20T02:59:41.896Z,2.03
2023-04-20T03:02:09.916Z,1.83
2023-04-20T03:04:37.982Z,1.93
2023-04-20T03:07:09.450Z,1.73
2023-04-20T03:09:37.885Z,2.10
2023-04-20T03:12:06.563Z,1.97
2023-04-20T03:14:34.542Z,1.60
2023-04-20T03:17:02.591Z,1.50
2023-04-20T03:19:30.525Z,2.10
2023-04-20T03:21:58.418Z,2.03
2023-04-20T03:24:27.732Z,2.03
2023-04-20T03:26:55.647Z,2.20
2023-04-20T03:29:23.549Z,2.07
2023-04-20T03:31:51.494Z,2.03
2023-04-20T03:34:19.433Z,1.97
2023-04-20T03:36:47.363Z,1.90
2023-04-20T03:39:15.378Z,2.00
2023-04-20T03:41:44.712Z,1.50
2023-04-20T03:44:14.037Z,2.00
2023-04-20T03:46:42.346Z,1.73
2023-04-20T03:49:10.404Z,1.80
2023-04-20T03:51:38.314Z,1.83
2023-04-20T03:54:07.084Z,2.07
2023-04-20T03:56:35.187Z,2.10
2023-04-20T03:59:04.509Z,1.60
2023-04-20T04:01:33.169Z,1.70
2023-04-20T04:04:01.378Z,2.00
2023-04-20T04:06:29.427Z,1.80
2023-04-20T04:08:57.377Z,1.60
2023-04-20T04:11:26.055Z,1.73
2023-04-20T04:13:53.990Z,1.97
2023-04-20T04:16:23.329Z,1.80
2023-04-20T04:18:51.334Z,1.73
2023-04-20T04:21:19.259Z,1.80
2023-04-20T04:23:47.426Z,2.20
2023-04-20T04:26:17.885Z,1.83
2023-04-20T04:28:46.791Z,2.30
2023-04-20T04:31:17.332Z,2.00
2023-04-20T04:33:46.727Z,1.50
2023-04-20T04:36:15.468Z,2.13
2023-04-20T04:38:44.500Z,2.13
2023-04-20T04:41:13.004Z,2.10
2023-04-20T04:43:41.539Z,2.03
2023-04-20T04:46:10.763Z,1.77
2023-04-20T04:48:40.636Z,1.90
2023-04-20T04:51:10.119Z,2.30
2023-04-20T04:53:38.054Z,1.70
2023-04-20T04:56:07.387Z,1.70
2023-04-20T04:58:35.335Z,1.70
2023-04-20T05:01:03.260Z,1.73
2023-04-20T05:03:31.629Z,2.53
2023-04-20T05:05:59.633Z,2.10
2023-04-20T05:08:28.937Z,1.80
2023-04-20T05:10:58.451Z,2.10
2023-04-20T05:13:26.394Z,1.70
2023-04-20T05:15:54.331Z,2.00
2023-04-20T05:18:22.266Z,2.40
2023-04-20T05:20:50.187Z,2.03
2023-04-20T05:23:18.136Z,2.03
2023-04-20T05:25:47.588Z,2.30
2023-04-20T05:28:15.591Z,2.23
2023-04-20T05:30:43.705Z,2.40
2023-04-20T05:33:11.636Z,2.20
2023-04-20T05:35:40.377Z,2.00
2023-04-20T05:38:08.519Z,1.80
2023-04-20T05:40:36.427Z,2.50
2023-04-20T05:43:06.084Z,2.47
2023-04-20T05:45:34.588Z,1.90
2023-04-20T05:48:02.656Z,2.27
2023-04-20T05:50:30.899Z,2.40
2023-04-20T05:52:58.923Z,2.23
2023-04-20T05:55:26.890Z,2.07
2023-04-20T05:57:54.815Z,2.47
2023-04-20T06:00:25.964Z,2.07
2023-04-20T06:02:55.065Z,1.90
2023-04-20T06:05:23.428Z,2.40
2023-04-20T06:07:51.398Z,1.97
2023-04-20T06:10:19.284Z,2.20
2023-04-20T06:12:47.543Z,2.50
2023-04-20T06:15:15.434Z,2.50
2023-04-20T06:17:44.752Z,2.20
2023-04-20T06:20:12.967Z,1.47
2023-04-20T06:22:44.225Z,2.73
2023-04-20T06:25:12.511Z,2.87
2023-04-20T06:27:40.697Z,2.53
2023-04-20T06:30:09.838Z,2.33
2023-04-20T06:32:38.256Z,2.60
2023-04-20T06:35:08.976Z,2.57
2023-04-20T06:37:37.196Z,2.27
2023-04-20T06:40:08.003Z,2.50
2023-04-20T06:42:36.424Z,2.97
2023-04-20T06:45:04.993Z,2.27
2023-04-20T06:47:33.777Z,2.30
2023-04-20T06:50:02.845Z,2.33
2023-04-20T06:52:32.365Z,2.23
2023-04-20T06:55:00.618Z,2.30
2023-04-20T06:57:28.628Z,2.83
2023-04-20T06:59:56.557Z,2.40
2023-04-20T07:02:24.596Z,2.50
2023-04-20T07:04:52.798Z,2.40
2023-04-20T07:07:21.125Z,2.30
2023-04-20T07:09:50.419Z,2.20
2023-04-20T07:12:18.356Z,2.40
2023-04-20T07:14:46.267Z,3.00
2023-04-20T07:17:14.194Z,3.17
2023-04-20T07:19:42.098Z,2.40
2023-04-20T07:22:10.024Z,2.80
2023-04-20T07:24:37.928Z,2.60
2023-04-20T07:27:08.447Z,2.50
2023-04-20T07:29:36.365Z,1.97
2023-04-20T07:32:04.572Z,3.03
2023-04-20T07:34:32.555Z,2.50
2023-04-20T07:37:00.448Z,2.60
2023-04-20T07:39:30.236Z,3.00
2023-04-20T07:41:58.204Z,2.40
2023-04-20T07:44:27.716Z,2.90
2023-04-20T07:46:57.588Z,2.40
2023-04-20T07:49:25.947Z,2.47
2023-04-20T07:51:56.902Z,2.63
2023-04-20T07:54:32.250Z,2.60
2023-04-20T07:57:01.540Z,2.73
2023-04-20T07:59:30.896Z,2.80
2023-04-20T08:02:01.661Z,2.20
2023-04-20T08:04:29.924Z,3.03
2023-04-20T08:06:58.135Z,2.43
2023-04-20T08:09:26.466Z,2.80
2023-04-20T08:11:54.404Z,2.67
2023-04-20T08:14:22.345Z,2.43
2023-04-20T08:16:51.651Z,2.30
2023-04-20T08:19:19.591Z,2.57
2023-04-20T08:21:47.654Z,2.73
2023-04-20T08:24:15.657Z,2.73
2023-04-20T08:26:44.366Z,2.50
2023-04-20T08:29:12.284Z,2.60
2023-04-20T08:31:40.253Z,2.63
2023-04-20T08:34:09.560Z,2.53
2023-04-20T08:36:37.536Z,2.40
2023-04-20T08:39:10.518Z,2.67
2023-04-20T08:41:38.537Z,2.77
2023-04-20T08:44:07.782Z,2.47
2023-04-20T08:46:36.189Z,3.17
2023-04-20T08:49:04.445Z,2.50
2023-04-20T08:51:34.337Z,2.37
2023-04-20T08:54:06.368Z,2.70
2023-04-20T08:56:38.469Z,2.70
2023-04-20T08:59:09.999Z,2.57
2023-04-20T09:01:39.180Z,2.60
2023-04-20T09:04:17.711Z,2.73
2023-04-20T09:06:47.719Z,2.53
2023-04-20T09:09:15.709Z,2.53
2023-04-20T09:11:43.965Z,2.87
2023-04-20T09:14:14.146Z,2.50
2023-04-20T09:16:50.926Z,3.20
2023-04-20T09:19:23.995Z,2.70
2023-04-20T09:21:55.184Z,2.40
2023-04-20T09:24:25.215Z,2.80
2023-04-20T09:26:53.379Z,2.20
2023-04-20T09:29:23.507Z,2.23
2023-04-20T09:31:52.398Z,2.43
2023-04-20T09:34:20.521Z,2.90
2023-04-20T09:36:50.285Z,3.23
2023-04-20T09:39:21.253Z,2.60
2023-04-20T09:41:50.484Z,3.40
2023-04-20T09:44:19.410Z,3.00
2023-04-20T09:46:47.680Z,2.20
2023-04-20T09:49:16.169Z,2.57
2023-04-20T09:51:45.982Z,2.50
2023-04-20T09:54:17.408Z,2.90
2023-04-20T09:56:47.096Z,3.50
2023-04-20T09:59:15.457Z,3.07
2023-04-20T10:01:43.513Z,2.97
2023-04-20T10:04:14.207Z,3.10
2023-04-20T10:06:53.661Z,2.40
2023-04-20T10:09:23.577Z,2.73
2023-04-20T10:11:55.695Z,2.33
2023-04-20T10:14:26.446Z,3.17
2023-04-20T10:17:02.575Z,3.23
2023-04-20T10:19:41.398Z,2.87
2023-04-20T10:22:10.407Z,2.97
2023-04-20T10:24:38.946Z,2.87
2023-04-20T10:27:19.247Z,2.67
2023-04-20T10:29:47.436Z,2.70
2023-04-20T10:32:25.706Z,2.50
2023-04-20T10:35:04.786Z,3.50
2023-04-20T10:37:33.067Z,3.10
2023-04-20T10:40:01.535Z,2.70
2023-04-20T10:42:30.922Z,2.60
2023-04-20T10:44:58.824Z,2.27
2023-04-20T10:47:31.328Z,3.03
2023-04-20T10:50:10.725Z,2.60
2023-04-20T10:52:39.839Z,2.93
2023-04-20T10:55:08.609Z,2.60
2023-04-20T10:57:37.923Z,3.00
2023-04-20T11:00:16.654Z,2.80
2023-04-20T11:02:49.611Z,2.70
2023-04-20T11:05:18.936Z,3.03
2023-04-20T11:07:53.728Z,2.50
2023-04-20T11:10:23.441Z,2.53
2023-04-20T11:12:53.153Z,2.97
2023-04-20T11:15:31.531Z,2.70
2023-04-20T11:18:08.262Z,3.13
2023-04-20T11:20:36.983Z,2.97
2023-04-20T11:23:06.031Z,3.40
2023-04-20T11:25:34.054Z,2.67
2023-04-20T11:28:08.918Z,2.90
2023-04-20T11:30:41.344Z,2.90
2023-04-20T11:33:09.584Z,2.50
2023-04-20T11:35:38.350Z,2.80
2023-04-20T11:38:06.384Z,2.67
2023-04-20T11:40:34.655Z,2.90
2023-04-20T11:43:04.516Z,3.00
2023-04-20T11:45:36.357Z,2.80
2023-04-20T11:48:06.010Z,2.53
2023-04-20T11:50:34.071Z,3.17
2023-04-20T11:53:02.285Z,2.70
2023-04-20T11:55:30.473Z,2.80
2023-04-20T11:57:58.443Z,2.63
2023-04-20T12:00:26.337Z,2.33
2023-04-20T12:02:55.671Z,2.60
2023-04-20T12:05:23.779Z,3.00
2023-04-20T12:07:51.814Z,2.30
2023-04-20T12:10:19.762Z,2.67
2023-04-20T12:12:48.004Z,2.80
2023-04-20T12:15:22.187Z,2.77
2023-04-20T12:17:50.250Z,2.30
2023-04-20T12:20:19.588Z,2.87
2023-04-20T12:22:47.551Z,2.57
2023-04-20T12:25:15.592Z,2.93
2023-04-20T12:27:43.545Z,2.97
2023-04-20T12:30:12.470Z,2.23
2023-04-20T12:32:40.486Z,2.53
2023-04-20T12:35:09.501Z,2.40
2023-04-20T12:37:38.814Z,2.37
2023-04-20T12:40:08.569Z,2.83
2023-04-20T12:42:36.524Z,2.70
2023-04-20T12:45:04.901Z,2.10
2023-04-20T12:47:32.874Z,2.43
2023-04-20T12:50:00.960Z,2.70
2023-04-20T12:52:29.143Z,2.67
2023-04-20T12:54:58.376Z,2.40
2023-04-20T12:57:26.402Z,2.33
2023-04-20T12:59:54.634Z,2.53
2023-04-20T13:02:22.851Z,2.27
2023-04-20T13:04:51.952Z,2.80
2023-04-20T13:07:19.966Z,2.30
2023-04-20T13:09:47.869Z,2.53
2023-04-20T13:12:17.468Z,2.50
2023-04-20T13:14:45.465Z,3.00
2023-04-20T13:17:13.371Z,2.37
2023-04-20T13:19:41.319Z,2.53
2023-04-20T13:22:09.259Z,2.20
2023-04-20T13:24:37.253Z,2.67
2023-04-20T13:27:05.492Z,2.97
2023-04-20T13:29:34.846Z,2.37
2023-04-20T13:32:02.827Z,2.10
2023-04-20T13:34:30.849Z,2.53
2023-04-20T13:36:58.917Z,2.00
2023-04-20T13:39:27.826Z,2.50
2023-04-20T13:41:55.850Z,2.00
2023-04-20T13:44:23.777Z,2.20
2023-04-20T13:46:53.036Z,2.57
2023-04-20T13:49:22.701Z,2.43
2023-04-20T13:51:50.945Z,2.80
2023-04-20T13:54:19.147Z,2.13
2023-04-20T13:56:47.423Z,2.57
2023-04-20T13:59:15.526Z,2.73
2023-04-20T14:01:43.668Z,2.47
2023-04-20T14:04:16.682Z,2.60
2023-04-20T14:06:44.946Z,2.47
2023-04-20T14:09:12.858Z,2.40
2023-04-20T14:11:40.874Z,2.67
2023-04-20T14:14:08.797Z,2.83
2023-04-20T14:16:44.252Z,2.40
2023-04-20T14:19:13.570Z,2.60
2023-04-20T14:21:44.083Z,2.67
2023-04-20T14:24:12.455Z,2.60
2023-04-20T14:26:41.009Z,2.57
2023-04-20T14:29:08.948Z,2.30
2023-04-20T14:31:37.175Z,2.63
2023-04-20T14:34:05.373Z,2.50
2023-04-20T14:36:34.667Z,2.80
2023-04-20T14:39:03.270Z,2.80
2023-04-20T14:41:33.506Z,2.77
2023-04-20T14:44:01.557Z,2.83
2023-04-20T14:46:29.685Z,3.60
2023-04-20T14:48:57.720Z,2.50
2023-04-20T14:51:25.653Z,3.40
2023-04-20T14:53:55.288Z,2.50
2023-04-20T14:56:23.448Z,2.70
2023-04-20T14:58:51.495Z,2.87
2023-04-20T15:01:19.459Z,3.20
2023-04-20T15:03:47.666Z,3.00
2023-04-20T15:06:16.812Z,3.17
2023-04-20T15:08:44.701Z,2.83
2023-04-20T15:11:14.005Z,2.80
2023-04-20T15:13:43.621Z,2.23
2023-04-20T15:16:11.881Z,2.07
2023-04-20T15:18:39.888Z,2.30
2023-04-20T15:21:08.419Z,2.60
2023-04-20T15:23:36.336Z,2.63
2023-04-20T15:26:04.315Z,3.37
2023-04-20T15:28:33.600Z,2.80
2023-04-20T15:31:01.582Z,2.90
2023-04-20T15:33:29.578Z,2.97
2023-04-20T15:35:57.488Z,2.67
2023-04-20T15:38:25.466Z,2.87
2023-04-20T15:40:53.871Z,2.73
2023-04-20T15:43:21.783Z,2.70
2023-04-20T15:45:51.054Z,2.80
2023-04-20T15:48:19.116Z,3.03
2023-04-20T15:50:51.552Z,2.30
2023-04-20T15:53:19.980Z,2.70
2023-04-20T15:55:48.015Z,2.80
2023-04-20T15:58:15.956Z,2.80
2023-04-20T16:00:44.079Z,3.30
2023-04-20T16:03:13.622Z,2.77
2023-04-20T16:05:41.613Z,2.70
2023-04-20T16:08:09.699Z,2.87
2023-04-20T16:10:37.610Z,2.40
2023-04-20T16:13:05.643Z,2.73
2023-04-20T16:15:33.576Z,3.20
2023-04-20T16:18:04.236Z,2.80
2023-04-20T16:20:33.574Z,2.70
2023-04-20T16:23:01.481Z,2.93
2023-04-20T16:25:29.473Z,2.60
2023-04-20T16:27:57.405Z,2.50
2023-04-20T16:30:25.325Z,2.73
2023-04-20T16:32:53.292Z,3.00
2023-04-20T16:35:21.748Z,2.53
2023-04-20T16:37:51.250Z,2.33
2023-04-20T16:40:20.855Z,2.77
2023-04-20T16:42:48.825Z,3.07
2023-04-20T16:45:16.850Z,2.73
2023-04-20T16:47:44.943Z,2.97
2023-04-20T16:50:19.153Z,2.60
2023-04-20T16:52:47.383Z,2.50
2023-04-20T16:55:16.735Z,2.83
2023-04-20T16:57:44.673Z,2.50
2023-04-20T17:00:14.201Z,2.50
2023-04-20T17:02:42.470Z,2.90
2023-04-20T17:05:11.484Z,2.77
2023-04-20T17:07:39.456Z,3.07
2023-04-20T17:10:08.141Z,3.20
2023-04-20T17:12:38.443Z,2.53
2023-04-20T17:15:09.453Z,2.90
2023-04-20T17:17:37.912Z,3.07
2023-04-20T17:20:07.470Z,2.70
2023-04-20T17:22:36.210Z,3.03
2023-04-20T17:25:06.545Z,2.70
2023-04-20T17:27:36.790Z,2.70
2023-04-20T17:30:05.400Z,2.93
2023-04-20T17:32:33.376Z,2.93
2023-04-20T17:35:01.457Z,2.77
2023-04-20T17:37:29.430Z,3.13
2023-04-20T17:39:57.352Z,2.70
2023-04-20T17:42:25.316Z,3.23
2023-04-20T17:44:54.615Z,3.23
2023-04-20T17:47:22.562Z,2.77
2023-04-20T17:49:50.497Z,2.67
2023-04-20T17:52:19.649Z,3.20
2023-04-20T17:54:47.848Z,3.17
2023-04-20T17:57:15.809Z,2.80
2023-04-20T17:59:44.348Z,3.30
2023-04-20T18:02:14.028Z,3.10
2023-04-20T18:04:42.456Z,3.10
2023-04-20T18:07:13.034Z,3.10
2023-04-20T18:09:41.284Z,3.40
2023-04-20T18:12:10.732Z,3.30
2023-04-20T18:14:38.774Z,3.10
2023-04-20T18:17:06.760Z,3.37
2023-04-20T18:19:36.103Z,3.17
2023-04-20T18:22:04.407Z,2.93
2023-04-20T18:24:32.357Z,3.20
2023-04-20T18:27:01.261Z,3.00
2023-04-20T18:29:29.842Z,2.57
2023-04-20T18:31:59.416Z,3.43
2023-04-20T18:34:30.931Z,3.20
2023-04-20T18:37:00.413Z,3.30
2023-04-20T18:39:28.441Z,2.93
2023-04-20T18:41:56.399Z,3.30
2023-04-20T18:44:24.362Z,2.97
2023-04-20T18:46:52.471Z,2.63
2023-04-20T18:49:20.448Z,3.30
2023-04-20T18:51:48.526Z,2.87
2023-04-20T18:54:18.208Z,3.10
2023-04-20T18:56:46.439Z,3.37
2023-04-20T18:59:14.384Z,3.57
2023-04-20T19:01:42.548Z,3.00
2023-04-20T19:04:10.676Z,3.70
2023-04-20T19:06:38.710Z,3.50
2023-04-20T19:09:08.260Z,3.07
2023-04-20T19:11:37.764Z,3.50
2023-04-20T19:14:05.797Z,4.07
2023-04-20T19:16:34.687Z,3.40
2023-04-20T19:19:03.760Z,2.70
2023-04-20T19:21:32.624Z,4.33
2023-04-20T19:24:00.550Z,3.47
2023-04-20T19:26:28.565Z,2.80
2023-04-20T19:28:59.913Z,3.67
2023-04-20T19:31:32.252Z,3.57
2023-04-20T19:34:00.333Z,3.70
2023-04-20T19:36:28.291Z,3.30
2023-04-20T19:38:56.243Z,3.30
2023-04-20T19:41:25.868Z,3.10
2023-04-20T19:43:54.081Z,3.67
2023-04-20T19:46:23.482Z,3.90
2023-04-20T19:48:52.423Z,3.63
2023-04-20T19:51:22.235Z,3.50
2023-04-20T19:53:50.167Z,3.00
2023-04-20T19:56:18.189Z,3.87
2023-04-20T19:58:46.136Z,3.43
2023-04-20T20:01:14.278Z,3.90
2023-04-20T20:03:43.939Z,3.77
2023-04-20T20:06:12.297Z,3.70
2023-04-20T20:08:41.111Z,3.77
2023-04-20T20:11:09.400Z,3.77
2023-04-20T20:13:37.340Z,4.00
2023-04-20T20:16:05.502Z,3.97
2023-04-20T20:18:33.470Z,3.90
2023-04-20T20:21:03.403Z,4.40
2023-04-20T20:23:31.356Z,4.10
2023-04-20T20:25:59.302Z,4.10
2023-04-20T20:28:27.266Z,3.80
2023-04-20T20:30:55.399Z,3.87
2023-04-20T20:33:23.514Z,3.80
2023-04-20T20:35:52.553Z,3.90
2023-04-20T20:38:22.551Z,3.40
2023-04-20T20:40:53.349Z,4.10
2023-04-20T20:43:21.650Z,4.17
2023-04-20T20:45:49.721Z,4.27
2023-04-20T20:48:17.663Z,4.00
2023-04-20T20:50:45.808Z,3.40
2023-04-20T20:53:13.976Z,3.50
2023-04-20T20:55:43.262Z,4.10
2023-04-20T20:58:11.200Z,4.00
2023-04-20T21:00:39.257Z,3.90
2023-04-20T21:03:07.423Z,4.90
2023-04-20T21:05:35.909Z,4.00
2023-04-20T21:08:03.935Z,3.80
2023-04-20T21:10:31.991Z,3.43
2023-04-20T21:13:01.286Z,4.70
2023-04-20T21:15:29.208Z,4.20
2023-04-20T21:17:57.194Z,3.70
2023-04-20T21:20:25.178Z,4.30
2023-04-20T21:22:53.127Z,4.77
2023-04-20T21:25:21.245Z,4.00
2023-04-20T21:27:49.268Z,3.93
2023-04-20T21:30:18.633Z,3.93
2023-04-20T21:32:46.730Z,4.43
2023-04-20T21:35:14.743Z,4.07
2023-04-20T21:37:43.700Z,4.40
2023-04-20T21:40:12.468Z,4.23
2023-04-20T21:42:40.500Z,3.50
2023-04-20T21:45:09.555Z,4.43
2023-04-20T21:47:38.849Z,4.53
2023-04-20T21:50:07.582Z,4.50
2023-04-20T21:52:35.572Z,4.50
2023-04-20T21:55:03.545Z,4.53
2023-04-20T21:57:31.457Z,4.30
2023-04-20T21:59:59.430Z,4.50
2023-04-20T22:02:27.508Z,4.43
2023-04-20T22:04:56.965Z,4.17
2023-04-20T22:07:27.488Z,4.47
2023-04-20T22:09:55.467Z,4.53
2023-04-20T22:12:38.228Z,4.27
2023-04-20T22:15:10.583Z,4.53
2023-04-20T22:17:38.727Z,4.13
2023-04-20T22:20:10.295Z,4.10
2023-04-20T22:22:38.951Z,4.13
2023-04-20T22:25:08.372Z,4.03
2023-04-20T22:27:37.822Z,4.23
2023-04-20T22:30:09.428Z,4.40
2023-04-20T22:32:37.602Z,4.20
